6Y3 weather

North Fox Island Airport
North Fox Island, Michigan, United States

Public forecast

Using degrees Fahrenheit for public forecast. Weather courtesy of forecast.io.

Closest aviation weather report (METAR) to North Fox Island Airport

Closest report is Beaver Island Airport, 15.5 nm (28.7 km) NE. Retrieved 2020/07/13 05:16 UTC (0 seconds ago):

KSJX 130516Z AUTO 00000KT 10SM CLR 15/14 A2996 RMK AO2 T01500136

Closest aviation forecast (TAF) to North Fox Island Airport

Closest forecast is Pellston Regional Airport of Emmet County Airport, 41.7 nm (77.3 km) E. Retrieved 2020-07-13 04:15 UTC (56 minutes ago):

TAF COR KPLN 130413Z 1304/1324 32006KT P6SM BKN040 FM130600 33005KT P6SM SCT040 FM130900 33005KT P6SM FEW250 FM131500 33008KT P6SM SCT050